createdAt,value
2018-09-21T00:00:10.903Z,978.17
2018-09-21T00:01:10.830Z,978.19
2018-09-21T00:02:10.756Z,978.15
2018-09-21T00:03:10.681Z,978.21
2018-09-21T00:04:10.603Z,978.15
2018-09-21T00:05:10.530Z,978.17
2018-09-21T00:06:10.460Z,978.14
2018-09-21T00:07:10.419Z,978.13
2018-09-21T00:08:10.313Z,978.13
2018-09-21T00:09:10.233Z,978.13
2018-09-21T00:10:10.162Z,978.07
2018-09-21T00:11:10.088Z,978.09
2018-09-21T00:12:10.012Z,978.07
2018-09-21T00:13:09.938Z,978.08
2018-09-21T00:14:09.863Z,978.06
2018-09-21T00:15:09.793Z,978.06
2018-09-21T00:16:09.714Z,978.05
2018-09-21T00:17:09.640Z,978.03
2018-09-21T00:18:09.567Z,978.03
2018-09-21T00:19:09.491Z,978.05
2018-09-21T00:20:09.421Z,978.05
2018-09-21T00:21:09.343Z,978.06
2018-09-21T00:22:09.272Z,978.04
2018-09-21T00:23:09.209Z,978.05
2018-09-21T00:24:09.120Z,978.05
2018-09-21T00:25:09.048Z,978.04
2018-09-21T00:26:08.970Z,978.04
2018-09-21T00:27:08.899Z,978.06
2018-09-21T00:28:08.825Z,978.01
2018-09-21T00:29:08.750Z,978.03
2018-09-21T00:30:08.673Z,978.01
2018-09-21T00:31:08.601Z,977.97
2018-09-21T00:32:08.531Z,977.96
2018-09-21T00:33:08.451Z,977.93
2018-09-21T00:34:08.387Z,977.96
2018-09-21T00:35:08.302Z,977.94
2018-09-21T00:36:08.229Z,977.93
2018-09-21T00:37:08.152Z,977.90
2018-09-21T00:38:08.078Z,977.89
2018-09-21T00:39:08.013Z,977.88
2018-09-21T00:41:39.983Z,977.83
2018-09-21T00:42:39.863Z,977.83
2018-09-21T00:44:44.165Z,977.83
2018-09-21T00:45:44.088Z,977.79
2018-09-21T00:46:44.011Z,977.79
2018-09-21T00:47:43.942Z,977.76
2018-09-21T00:48:43.863Z,977.74
2018-09-21T00:49:43.791Z,977.73
2018-09-21T00:50:43.715Z,977.69
2018-09-21T00:51:43.639Z,977.70
2018-09-21T00:52:43.566Z,977.72
2018-09-21T00:53:43.492Z,977.68
2018-09-21T00:54:43.418Z,977.64
2018-09-21T00:55:43.345Z,977.64
2018-09-21T00:56:43.265Z,977.66
2018-09-21T00:57:43.191Z,977.66
2018-09-21T00:58:43.125Z,977.62
2018-09-21T00:59:43.049Z,977.64
2018-09-21T01:00:42.969Z,977.66
2018-09-21T01:01:42.892Z,977.62
2018-09-21T01:02:42.820Z,977.60
2018-09-21T01:03:42.743Z,977.58
2018-09-21T01:04:42.673Z,977.55
2018-09-21T01:05:42.595Z,977.53
2018-09-21T01:06:42.522Z,977.53
2018-09-21T01:07:42.453Z,977.51
2018-09-21T01:08:42.370Z,977.53
2018-09-21T01:09:42.300Z,977.52
2018-09-21T01:10:42.224Z,977.52
2018-09-21T01:11:42.151Z,977.48
2018-09-21T01:12:42.080Z,977.52
2018-09-21T01:13:42.005Z,977.50
2018-09-21T01:14:41.925Z,977.45
2018-09-21T01:15:41.855Z,977.44
2018-09-21T01:16:41.783Z,977.46
2018-09-21T01:17:41.705Z,977.42
2018-09-21T01:18:41.626Z,977.43
2018-09-21T01:19:41.550Z,977.41
2018-09-21T01:20:41.477Z,977.47
2018-09-21T01:21:41.407Z,977.41
2018-09-21T01:22:41.332Z,977.41
2018-09-21T01:23:41.254Z,977.40
2018-09-21T01:24:41.182Z,977.39
2018-09-21T01:25:41.108Z,977.35
2018-09-21T01:26:41.034Z,977.36
2018-09-21T01:27:40.958Z,977.36
2018-09-21T01:28:40.960Z,977.34
2018-09-21T01:29:40.810Z,977.36
2018-09-21T01:30:40.730Z,977.36
2018-09-21T01:31:40.663Z,977.34
2018-09-21T01:32:40.588Z,977.37
2018-09-21T01:33:40.510Z,977.34
2018-09-21T01:34:40.444Z,977.36
2018-09-21T01:35:40.357Z,977.38
2018-09-21T01:36:40.283Z,977.34
2018-09-21T01:37:40.261Z,977.33
2018-09-21T01:38:40.140Z,977.31
2018-09-21T01:39:40.071Z,977.33
2018-09-21T01:40:40.050Z,977.28
2018-09-21T01:41:39.911Z,977.30
2018-09-21T01:42:39.836Z,977.28
2018-09-21T01:43:39.764Z,977.27
2018-09-21T01:44:39.691Z,977.27
2018-09-21T01:45:39.624Z,977.30
2018-09-21T01:46:39.536Z,977.29
2018-09-21T01:47:39.464Z,977.27
2018-09-21T01:48:39.387Z,977.31
2018-09-21T01:49:39.314Z,977.28
2018-09-21T01:50:39.237Z,977.32
2018-09-21T01:51:39.160Z,977.26
2018-09-21T01:52:39.089Z,977.27
2018-09-21T01:53:39.011Z,977.28
2018-09-21T01:54:38.939Z,977.29
2018-09-21T01:55:38.871Z,977.28
2018-09-21T01:56:38.794Z,977.29
2018-09-21T01:57:38.720Z,977.30
2018-09-21T01:58:38.639Z,977.24
2018-09-21T01:59:38.563Z,977.27
2018-09-21T02:00:38.498Z,977.27
2018-09-21T02:01:38.415Z,977.24
2018-09-21T02:02:38.340Z,977.25
2018-09-21T02:03:38.266Z,977.27
2018-09-21T02:04:38.196Z,977.24
2018-09-21T02:05:38.119Z,977.22
2018-09-21T02:06:38.044Z,977.24
2018-09-21T02:07:37.967Z,977.27
2018-09-21T02:08:37.892Z,977.25
2018-09-21T02:09:37.858Z,977.25
2018-09-21T02:10:37.746Z,977.21
2018-09-21T02:11:37.669Z,977.26
2018-09-21T02:12:37.592Z,977.22
2018-09-21T02:13:37.520Z,977.26
2018-09-21T02:14:37.444Z,977.25
2018-09-21T02:15:37.370Z,977.21
2018-09-21T02:16:37.293Z,977.21
2018-09-21T02:17:37.232Z,977.16
2018-09-21T02:18:37.143Z,977.21
2018-09-21T02:19:37.066Z,977.20
2018-09-21T02:20:36.992Z,977.20
2018-09-21T02:21:36.921Z,977.22
2018-09-21T02:22:36.842Z,977.22
2018-09-21T02:23:36.768Z,977.17
2018-09-21T02:24:36.695Z,977.19
2018-09-21T02:25:36.617Z,977.17
2018-09-21T02:26:36.551Z,977.17
2018-09-21T02:27:36.470Z,977.17
2018-09-21T02:28:36.397Z,977.19
2018-09-21T02:29:36.320Z,977.19
2018-09-21T02:30:36.241Z,977.18
2018-09-21T02:31:36.169Z,977.16
2018-09-21T02:32:36.092Z,977.19
2018-09-21T02:33:36.022Z,977.15
2018-09-21T02:34:35.940Z,977.17
2018-09-21T02:35:35.868Z,977.17
2018-09-21T02:36:35.793Z,977.15
2018-09-21T02:37:35.719Z,977.17
2018-09-21T02:38:35.640Z,977.18
2018-09-21T02:39:35.567Z,977.18
2018-09-21T02:40:35.491Z,977.15
2018-09-21T02:41:35.420Z,977.14
2018-09-21T02:42:35.343Z,977.16
2018-09-21T02:43:35.269Z,977.14
2018-09-21T02:44:35.197Z,977.12
2018-09-21T02:45:35.116Z,977.11
2018-09-21T02:46:35.043Z,977.11
2018-09-21T02:47:34.966Z,977.10
2018-09-21T02:48:34.903Z,977.12
2018-09-21T02:49:34.816Z,977.09
2018-09-21T02:50:34.739Z,977.05
2018-09-21T02:51:34.672Z,977.05
2018-09-21T02:52:34.590Z,977.03
2018-09-21T02:53:34.519Z,977.02
2018-09-21T02:54:34.442Z,977.04
2018-09-21T02:55:34.365Z,977.02
2018-09-21T02:56:34.294Z,977.01
2018-09-21T02:57:34.216Z,977.05
2018-09-21T02:58:34.145Z,977.07
2018-09-21T02:59:34.067Z,977.02
2018-09-21T03:00:34.052Z,977.06
2018-09-21T03:01:33.918Z,977.04
2018-09-21T03:02:33.846Z,977.00
2018-09-21T03:03:33.765Z,976.99
2018-09-21T03:04:33.691Z,977.03
2018-09-21T03:05:33.614Z,977.03
2018-09-21T03:06:33.539Z,977.01
2018-09-21T03:07:33.464Z,977.02
2018-09-21T03:08:33.399Z,976.99
2018-09-21T03:09:33.312Z,976.98
2018-09-21T03:10:33.237Z,976.98
2018-09-21T03:11:33.162Z,976.97
2018-09-21T03:12:33.086Z,976.96
2018-09-21T03:13:33.016Z,976.96
2018-09-21T03:14:32.938Z,976.93
2018-09-21T03:15:32.862Z,976.90
2018-09-21T03:16:32.786Z,976.91
2018-09-21T03:17:32.711Z,976.91
2018-09-21T03:18:32.640Z,976.90
2018-09-21T03:19:32.561Z,976.89
2018-09-21T03:20:32.489Z,976.88
2018-09-21T03:21:32.413Z,976.88
2018-09-21T03:22:32.335Z,976.83
2018-09-21T03:23:32.263Z,976.84
2018-09-21T03:24:32.184Z,976.86
2018-09-21T03:25:32.110Z,976.87
2018-09-21T03:26:32.032Z,976.87
2018-09-21T03:27:31.960Z,976.88
2018-09-21T03:28:31.892Z,976.85
2018-09-21T03:29:39.446Z,976.82
2018-09-21T03:31:25.139Z,976.82
2018-09-21T03:32:32.600Z,976.86
2018-09-21T03:34:37.976Z,976.82
2018-09-21T03:35:30.214Z,976.82
2018-09-21T03:37:42.199Z,976.81
2018-09-21T03:38:42.086Z,976.80
2018-09-21T03:40:38.750Z,976.78
2018-09-21T03:41:38.674Z,976.75
2018-09-21T03:42:46.234Z,976.74
2018-09-21T03:44:50.600Z,976.71
2018-09-21T03:45:50.470Z,976.70
2018-09-21T03:47:47.187Z,976.65
2018-09-21T03:48:47.053Z,976.63
2018-09-21T03:49:46.978Z,976.61
2018-09-21T03:50:46.901Z,976.59
2018-09-21T03:51:46.836Z,976.58
2018-09-21T03:52:46.751Z,976.64
2018-09-21T03:53:46.675Z,976.60
2018-09-21T03:54:46.599Z,976.58
2018-09-21T03:55:46.539Z,976.60
2018-09-21T03:56:46.451Z,976.58
2018-09-21T03:57:46.372Z,976.56
2018-09-21T03:58:46.297Z,976.55
2018-09-21T03:59:46.233Z,976.58
2018-09-21T04:00:46.148Z,976.52
2018-09-21T04:01:46.073Z,976.53
2018-09-21T04:02:45.997Z,976.52
2018-09-21T04:03:45.921Z,976.50
2018-09-21T04:04:45.844Z,976.53
2018-09-21T04:05:45.770Z,976.51
2018-09-21T04:06:45.698Z,976.49
2018-09-21T04:07:45.619Z,976.44
2018-09-21T04:08:45.548Z,976.47
2018-09-21T04:09:45.475Z,976.46
2018-09-21T04:10:45.393Z,976.46
2018-09-21T04:11:45.320Z,976.44
2018-09-21T04:12:45.241Z,976.45
2018-09-21T04:13:45.170Z,976.44
2018-09-21T04:14:45.121Z,976.46
2018-09-21T04:15:45.016Z,976.46
2018-09-21T04:16:44.943Z,976.42
2018-09-21T04:17:44.863Z,976.42
2018-09-21T04:18:44.784Z,976.47
2018-09-21T04:19:44.713Z,976.43
2018-09-21T04:20:44.641Z,976.45
2018-09-21T04:21:44.623Z,976.47
2018-09-21T04:22:44.486Z,976.44
2018-09-21T04:23:44.408Z,976.40
2018-09-21T04:24:44.334Z,976.45
2018-09-21T04:25:44.258Z,976.44
2018-09-21T04:26:44.193Z,976.39
2018-09-21T04:27:44.108Z,976.40
2018-09-21T04:28:44.033Z,976.36
2018-09-21T04:29:43.958Z,976.34
2018-09-21T04:30:43.883Z,976.32
2018-09-21T04:31:43.813Z,976.31
2018-09-21T04:32:43.732Z,976.30
2018-09-21T04:33:43.653Z,976.28
2018-09-21T04:34:43.578Z,976.29
2018-09-21T04:35:43.505Z,976.25
2018-09-21T04:36:43.440Z,976.28
2018-09-21T04:37:43.351Z,976.27
2018-09-21T04:38:43.275Z,976.27
2018-09-21T04:39:43.203Z,976.26
2018-09-21T04:40:43.131Z,976.28
2018-09-21T04:41:43.051Z,976.30
2018-09-21T04:42:42.974Z,976.28
2018-09-21T04:43:42.899Z,976.26
2018-09-21T04:44:42.825Z,976.25
2018-09-21T04:45:42.810Z,976.24
2018-09-21T04:46:42.671Z,976.22
2018-09-21T04:47:42.603Z,976.19
2018-09-21T04:48:42.632Z,976.15
2018-09-21T04:49:42.447Z,976.16
2018-09-21T04:50:42.376Z,976.15
2018-09-21T04:51:42.297Z,976.15
2018-09-21T04:52:42.223Z,976.17
2018-09-21T04:53:42.146Z,976.14
2018-09-21T04:54:42.069Z,976.17
2018-09-21T04:55:41.995Z,976.17
2018-09-21T04:56:41.922Z,976.17
2018-09-21T04:57:41.839Z,976.16
2018-09-21T04:58:41.767Z,976.18
2018-09-21T04:59:41.689Z,976.20
2018-09-21T05:00:41.617Z,976.20
2018-09-21T05:01:41.546Z,976.24
2018-09-21T05:02:41.466Z,976.19
2018-09-21T05:03:41.387Z,976.15
2018-09-21T05:04:41.313Z,976.19
2018-09-21T05:05:41.236Z,976.14
2018-09-21T05:06:41.162Z,976.17
2018-09-21T05:07:41.095Z,976.14
2018-09-21T05:08:41.013Z,976.15
2018-09-21T05:09:40.934Z,976.19
2018-09-21T05:10:40.860Z,976.19
2018-09-21T05:11:40.784Z,976.20
2018-09-21T05:12:40.714Z,976.23
2018-09-21T05:13:40.657Z,976.23
2018-09-21T05:14:40.556Z,976.23
2018-09-21T05:15:40.485Z,976.26
2018-09-21T05:16:40.406Z,976.23
2018-09-21T05:17:40.336Z,976.23
2018-09-21T05:18:40.259Z,976.27
2018-09-21T05:19:40.257Z,976.29
2018-09-21T05:20:40.120Z,976.31
2018-09-21T05:21:40.029Z,976.35
2018-09-21T05:22:39.955Z,976.34
2018-09-21T05:23:39.878Z,976.35
2018-09-21T05:24:39.803Z,976.34
2018-09-21T05:25:39.724Z,976.35
2018-09-21T05:26:39.658Z,976.33
2018-09-21T05:27:39.662Z,976.33
2018-09-21T05:28:39.498Z,976.37
2018-09-21T05:29:39.424Z,976.39
2018-09-21T05:30:39.351Z,976.37
2018-09-21T05:31:39.273Z,976.39
2018-09-21T05:32:39.212Z,976.41
2018-09-21T05:33:39.124Z,976.39
2018-09-21T05:34:39.105Z,976.41
2018-09-21T05:35:38.973Z,976.41
2018-09-21T05:36:38.897Z,976.40
2018-09-21T05:37:38.827Z,976.42
2018-09-21T05:38:38.747Z,976.40
2018-09-21T05:39:38.670Z,976.42
2018-09-21T05:40:38.597Z,976.43
2018-09-21T05:41:38.520Z,976.43
2018-09-21T05:42:38.444Z,976.43
2018-09-21T05:43:38.372Z,976.43
2018-09-21T05:44:38.294Z,976.42
2018-09-21T05:45:38.219Z,976.42
2018-09-21T05:46:38.143Z,976.40
2018-09-21T05:47:38.071Z,976.39
2018-09-21T05:48:37.994Z,976.42
2018-09-21T05:49:37.992Z,976.41
2018-09-21T05:50:37.846Z,976.45
2018-09-21T05:51:37.770Z,976.46
2018-09-21T05:52:37.691Z,976.47
2018-09-21T05:53:37.617Z,976.46
2018-09-21T05:54:37.541Z,976.47
2018-09-21T05:55:37.466Z,976.47
2018-09-21T05:56:37.391Z,976.47
2018-09-21T05:57:37.313Z,976.50
2018-09-21T05:58:37.239Z,976.50
2018-09-21T05:59:37.172Z,976.44
2018-09-21T06:00:37.094Z,976.45
2018-09-21T06:01:37.017Z,976.45
2018-09-21T06:02:36.987Z,976.43
2018-09-21T06:03:36.864Z,976.44
2018-09-21T06:04:36.791Z,976.45
2018-09-21T06:05:36.713Z,976.48
2018-09-21T06:06:36.636Z,976.44
2018-09-21T06:07:36.561Z,976.47
2018-09-21T06:08:36.494Z,976.46
2018-09-21T06:09:36.412Z,976.46
2018-09-21T06:10:36.339Z,976.45
2018-09-21T06:11:36.263Z,976.41
2018-09-21T06:12:36.189Z,976.45
2018-09-21T06:13:36.140Z,976.44
2018-09-21T06:14:36.042Z,976.40
2018-09-21T06:15:35.964Z,976.37
2018-09-21T06:16:35.891Z,976.38
2018-09-21T06:17:35.813Z,976.40
2018-09-21T06:18:35.739Z,976.39
2018-09-21T06:19:35.663Z,976.40
2018-09-21T06:20:35.595Z,976.43
2018-09-21T06:21:35.512Z,976.38
2018-09-21T06:22:44.850Z,976.38
2018-09-21T06:23:35.363Z,976.38
2018-09-21T06:24:35.293Z,976.37
2018-09-21T06:25:35.232Z,976.35
2018-09-21T06:26:35.139Z,976.38
2018-09-21T06:27:35.073Z,976.38
2018-09-21T06:28:34.990Z,976.39
2018-09-21T06:29:34.916Z,976.38
2018-09-21T06:30:34.864Z,976.40
2018-09-21T06:31:34.773Z,976.40
2018-09-21T06:32:34.695Z,976.41
2018-09-21T06:33:34.622Z,976.40
2018-09-21T06:34:34.543Z,976.39
2018-09-21T06:35:34.526Z,976.44
2018-09-21T06:36:34.394Z,976.45
2018-09-21T06:37:34.321Z,976.43
2018-09-21T06:38:34.242Z,976.41
2018-09-21T06:39:34.168Z,976.41
2018-09-21T06:40:34.101Z,976.39
2018-09-21T06:41:34.063Z,976.40
2018-09-21T06:42:33.945Z,976.38
2018-09-21T06:43:33.868Z,976.41
2018-09-21T06:44:33.824Z,976.35
2018-09-21T06:45:33.721Z,976.34
2018-09-21T06:46:33.644Z,976.30
2018-09-21T06:47:33.568Z,976.27
2018-09-21T06:48:33.499Z,976.29
2018-09-21T06:49:33.426Z,976.29
2018-09-21T06:50:33.344Z,976.33
2018-09-21T06:51:33.270Z,976.34
2018-09-21T06:52:33.195Z,976.37
2018-09-21T06:53:33.123Z,976.32
2018-09-21T06:54:33.047Z,976.33
2018-09-21T06:55:32.982Z,976.35
2018-09-21T06:56:32.897Z,976.31
2018-09-21T06:57:32.822Z,976.28
2018-09-21T06:58:32.750Z,976.27
2018-09-21T06:59:32.674Z,976.31
2018-09-21T07:00:32.607Z,976.19
2018-09-21T07:01:32.613Z,976.22
2018-09-21T07:02:32.449Z,976.24
2018-09-21T07:03:32.381Z,976.24
2018-09-21T07:04:32.302Z,976.22
2018-09-21T07:05:32.226Z,976.22
2018-09-21T07:06:32.157Z,976.23
2018-09-21T07:07:32.079Z,976.22
2018-09-21T07:08:32.008Z,976.24
2018-09-21T07:09:31.935Z,976.28
2018-09-21T07:10:31.855Z,976.28
2018-09-21T07:11:31.793Z,976.27
2018-09-21T07:12:31.706Z,976.30
2018-09-21T07:13:31.631Z,976.25
2018-09-21T07:14:31.558Z,976.22
2018-09-21T07:17:03.049Z,976.26
2018-09-21T07:18:02.926Z,976.24
2018-09-21T07:20:06.763Z,976.27
2018-09-21T07:21:06.692Z,976.29
2018-09-21T07:23:10.538Z,976.32
2018-09-21T07:24:10.423Z,976.34
2018-09-21T07:26:14.280Z,976.38
2018-09-21T07:27:14.163Z,976.39
2018-09-21T07:29:17.985Z,976.40
2018-09-21T07:30:17.906Z,976.36
2018-09-21T07:32:24.788Z,976.33
2018-09-21T07:33:21.666Z,976.26
2018-09-21T07:35:25.486Z,976.19
2018-09-21T07:36:25.407Z,976.15
2018-09-21T07:38:29.264Z,976.13
2018-09-21T07:39:29.142Z,976.16
2018-09-21T07:41:33.004Z,976.19
2018-09-21T07:42:32.880Z,976.18
2018-09-21T07:44:36.742Z,976.21
2018-09-21T07:45:36.619Z,976.20
2018-09-21T07:47:29.425Z,976.18
2018-09-21T07:48:29.301Z,976.14
2018-09-21T07:50:33.281Z,976.15
2018-09-21T07:51:33.139Z,976.09
2018-09-21T07:53:37.002Z,976.14
2018-09-21T07:54:36.881Z,976.11
2018-09-21T07:56:40.745Z,976.10
2018-09-21T07:57:40.625Z,976.10
2018-09-21T07:58:40.551Z,976.12
2018-09-21T07:59:40.476Z,976.09
2018-09-21T08:00:40.409Z,976.11
2018-09-21T08:01:40.327Z,976.13
2018-09-21T08:02:40.253Z,976.15
2018-09-21T08:03:40.213Z,976.17
2018-09-21T08:04:40.106Z,976.14
2018-09-21T08:05:40.034Z,976.13
2018-09-21T08:06:39.961Z,976.14
2018-09-21T08:07:39.890Z,976.19
2018-09-21T08:08:39.825Z,976.19
2018-09-21T08:09:39.751Z,976.17
2018-09-21T08:10:39.667Z,976.16
2018-09-21T08:11:39.593Z,976.18
2018-09-21T08:12:39.517Z,976.18
2018-09-21T08:13:39.445Z,976.15
2018-09-21T08:14:39.381Z,976.17
2018-09-21T08:15:39.298Z,976.23
2018-09-21T08:16:39.224Z,976.26
2018-09-21T08:17:39.152Z,976.25
2018-09-21T08:18:39.078Z,976.24
2018-09-21T08:19:39.015Z,976.27
2018-09-21T08:20:38.936Z,976.23
2018-09-21T08:21:38.864Z,976.20
2018-09-21T08:22:38.790Z,976.27
2018-09-21T08:23:38.729Z,976.24
2018-09-21T08:24:38.651Z,976.24
2018-09-21T08:25:38.565Z,976.28
2018-09-21T08:26:38.534Z,976.27
2018-09-21T08:27:38.420Z,976.27
2018-09-21T08:28:38.345Z,976.25
2018-09-21T08:29:38.272Z,976.26
2018-09-21T08:30:38.206Z,976.23
2018-09-21T08:31:38.126Z,976.25
2018-09-21T08:32:38.094Z,976.24
2018-09-21T08:33:37.985Z,976.24
2018-09-21T08:34:37.920Z,976.22
2018-09-21T08:35:37.835Z,976.19
2018-09-21T08:36:37.766Z,976.24
2018-09-21T08:37:37.686Z,976.23
2018-09-21T08:38:37.614Z,976.26
2018-09-21T08:39:37.549Z,976.24
2018-09-21T08:40:37.469Z,976.24
2018-09-21T08:41:37.404Z,976.26
2018-09-21T08:42:37.323Z,976.22
2018-09-21T08:43:37.249Z,976.17
2018-09-21T08:44:37.190Z,976.20
2018-09-21T08:45:37.170Z,976.17
2018-09-21T08:46:37.029Z,976.15
2018-09-21T08:47:36.957Z,976.12
2018-09-21T08:48:36.891Z,976.10
2018-09-21T08:49:36.811Z,976.14
2018-09-21T08:50:36.739Z,976.14
2018-09-21T08:51:36.666Z,976.13
2018-09-21T08:52:36.594Z,976.17
2018-09-21T08:53:36.518Z,976.17
2018-09-21T08:54:36.445Z,976.13
2018-09-21T08:55:36.374Z,976.14
2018-09-21T08:56:36.302Z,976.12
2018-09-21T08:57:36.242Z,976.16
2018-09-21T08:58:36.160Z,976.17
2018-09-21T08:59:36.082Z,976.13
2018-09-21T09:00:36.009Z,976.11
2018-09-21T09:01:35.939Z,976.08
2018-09-21T09:02:35.880Z,976.08
2018-09-21T09:03:35.794Z,976.07
2018-09-21T09:04:35.718Z,976.05
2018-09-21T09:05:35.649Z,976.06
2018-09-21T09:06:35.583Z,976.01
2018-09-21T09:07:35.502Z,975.99
2018-09-21T09:08:35.430Z,975.99
2018-09-21T09:09:35.355Z,975.96
2018-09-21T09:10:35.286Z,976.01
2018-09-21T09:11:35.212Z,975.94
2018-09-21T09:12:35.138Z,975.92
2018-09-21T09:13:35.065Z,975.91
2018-09-21T09:14:35.001Z,975.86
2018-09-21T09:15:34.930Z,975.88
2018-09-21T09:16:34.850Z,975.88
2018-09-21T09:17:34.777Z,975.85
2018-09-21T09:18:34.704Z,975.84
2018-09-21T09:19:34.640Z,975.82
2018-09-21T09:20:34.558Z,975.78
2018-09-21T09:21:34.488Z,975.73
2018-09-21T09:22:34.417Z,975.70
2018-09-21T09:23:34.344Z,975.71
2018-09-21T09:24:34.281Z,975.73
2018-09-21T09:25:34.200Z,975.76
2018-09-21T09:26:34.128Z,975.70
2018-09-21T09:27:34.073Z,975.71
2018-09-21T09:28:33.987Z,975.70
2018-09-21T09:29:33.929Z,975.68
2018-09-21T09:30:33.840Z,975.64
2018-09-21T09:31:33.765Z,975.66
2018-09-21T09:32:33.693Z,975.63
2018-09-21T09:33:33.624Z,975.64
2018-09-21T09:34:33.550Z,975.63
2018-09-21T09:35:33.477Z,975.66
2018-09-21T09:36:33.405Z,975.63
2018-09-21T09:37:33.333Z,975.68
2018-09-21T09:38:33.265Z,975.61
2018-09-21T09:39:33.190Z,975.60
2018-09-21T09:40:33.118Z,975.51
2018-09-21T09:41:33.049Z,975.52
2018-09-21T09:42:32.977Z,975.46
2018-09-21T09:43:32.915Z,975.49
2018-09-21T09:44:32.832Z,975.41
2018-09-21T09:45:32.760Z,975.44
2018-09-21T09:46:32.688Z,975.43
2018-09-21T09:47:32.615Z,975.41
2018-09-21T09:48:32.626Z,975.44
2018-09-21T09:49:32.474Z,975.42
2018-09-21T09:50:32.406Z,975.39
2018-09-21T09:51:32.336Z,975.41
2018-09-21T09:52:32.259Z,975.35
2018-09-21T09:53:32.187Z,975.36
2018-09-21T09:54:32.116Z,975.34
2018-09-21T09:55:32.045Z,975.31
2018-09-21T09:56:31.971Z,975.31
2018-09-21T09:57:31.900Z,975.27
2018-09-21T09:58:31.837Z,975.24
2018-09-21T09:59:31.762Z,975.27
2018-09-21T10:00:31.688Z,975.25
2018-09-21T10:01:31.623Z,975.29
2018-09-21T10:02:31.544Z,975.27
2018-09-21T10:03:31.486Z,975.24
2018-09-21T10:04:31.401Z,975.25
2018-09-21T10:05:31.334Z,975.25
2018-09-21T10:06:31.262Z,975.24
2018-09-21T10:07:31.189Z,975.22
2018-09-21T10:08:31.118Z,975.19
2018-09-21T10:09:31.053Z,975.24
2018-09-21T10:10:31.044Z,975.21
2018-09-21T10:11:30.907Z,975.23
2018-09-21T10:12:30.837Z,975.25
2018-09-21T10:13:30.782Z,975.25
2018-09-21T10:14:30.693Z,975.17
2018-09-21T10:15:30.626Z,975.16
2018-09-21T10:16:30.626Z,975.12
2018-09-21T10:17:30.482Z,975.11
2018-09-21T10:18:30.412Z,975.10
2018-09-21T10:19:30.342Z,975.08
2018-09-21T10:20:30.285Z,975.12
2018-09-21T10:21:30.201Z,975.18
2018-09-21T10:22:30.130Z,975.15
2018-09-21T10:23:30.061Z,975.09
2018-09-21T10:24:29.998Z,975.09
2018-09-21T10:25:29.922Z,975.04
2018-09-21T10:26:29.852Z,975.02
2018-09-21T10:27:29.965Z,975.02
2018-09-21T10:28:29.907Z,974.99
2018-09-21T10:29:29.643Z,974.98
2018-09-21T10:30:29.571Z,975.01
2018-09-21T10:31:29.512Z,974.99
2018-09-21T10:32:29.456Z,974.98
2018-09-21T10:33:29.439Z,975.06
2018-09-21T10:34:29.317Z,975.02
2018-09-21T10:35:29.256Z,974.99
2018-09-21T10:36:29.177Z,974.98
2018-09-21T10:37:29.084Z,975.00
2018-09-21T10:38:29.014Z,974.98
2018-09-21T10:39:28.946Z,974.99
2018-09-21T10:40:28.943Z,975.04
2018-09-21T10:41:28.820Z,974.92
2018-09-21T10:42:28.745Z,974.95
2018-09-21T10:43:28.670Z,974.93
2018-09-21T10:44:28.602Z,974.95
2018-09-21T10:45:28.538Z,974.94
2018-09-21T10:46:28.468Z,974.91
2018-09-21T10:47:28.395Z,974.91
2018-09-21T10:48:28.326Z,974.89
2018-09-21T10:49:28.260Z,974.89
2018-09-21T10:50:28.190Z,974.89
2018-09-21T10:51:28.123Z,974.89
2018-09-21T10:52:28.051Z,974.84
2018-09-21T10:53:27.986Z,974.84
2018-09-21T10:54:27.911Z,974.82
2018-09-21T10:55:27.845Z,974.81
2018-09-21T10:56:27.777Z,974.83
2018-09-21T10:57:27.708Z,974.80
2018-09-21T10:58:27.651Z,974.77
2018-09-21T10:59:27.574Z,974.78
2018-09-21T11:00:27.545Z,974.77
2018-09-21T11:01:27.443Z,974.75
2018-09-21T11:02:27.373Z,974.79
2018-09-21T11:03:27.296Z,974.73
2018-09-21T11:04:27.225Z,974.70
2018-09-21T11:05:27.164Z,974.73
2018-09-21T11:06:27.090Z,974.72
2018-09-21T11:07:27.023Z,974.73
2018-09-21T11:08:26.953Z,974.72
2018-09-21T11:09:26.931Z,974.68
2018-09-21T11:10:26.817Z,974.67
2018-09-21T11:11:26.750Z,974.66
2018-09-21T11:12:26.721Z,974.58
2018-09-21T11:13:26.620Z,974.60
2018-09-21T11:14:26.541Z,974.55
2018-09-21T11:15:26.473Z,974.53
2018-09-21T11:16:26.406Z,974.51
2018-09-21T11:17:26.343Z,974.55
2018-09-21T11:18:26.267Z,974.57
2018-09-21T11:19:26.200Z,974.60
2018-09-21T11:20:26.138Z,974.56
2018-09-21T11:21:26.073Z,974.52
2018-09-21T11:22:26.004Z,974.49
2018-09-21T11:23:25.947Z,974.54
2018-09-21T11:24:25.862Z,974.59
2018-09-21T11:25:25.836Z,974.51
2018-09-21T11:26:25.738Z,974.52
2018-09-21T11:27:25.672Z,974.50
2018-09-21T11:28:25.602Z,974.53
2018-09-21T11:29:25.535Z,974.46
2018-09-21T11:30:25.473Z,974.54
2018-09-21T11:31:25.416Z,974.52
2018-09-21T11:32:25.344Z,974.48
2018-09-21T11:33:25.279Z,974.43
2018-09-21T11:34:25.218Z,974.45
2018-09-21T11:35:25.155Z,974.45
2018-09-21T11:36:25.095Z,974.45
2018-09-21T11:37:25.033Z,974.42
2018-09-21T11:38:24.970Z,974.41
2018-09-21T11:39:24.908Z,974.37
2018-09-21T11:40:24.852Z,974.33
2018-09-21T11:41:24.787Z,974.33
2018-09-21T11:42:24.736Z,974.29
2018-09-21T11:43:24.671Z,974.23
2018-09-21T11:44:24.627Z,974.25
2018-09-21T11:45:24.547Z,974.23
2018-09-21T11:46:24.489Z,974.27
2018-09-21T11:47:24.556Z,974.14
2018-09-21T11:48:24.374Z,974.16
2018-09-21T11:49:24.314Z,974.21
2018-09-21T11:50:24.258Z,974.10
2018-09-21T11:51:24.199Z,974.06
2018-09-21T11:52:24.137Z,974.05
2018-09-21T11:53:24.089Z,974.07
2018-09-21T11:54:24.029Z,974.07
2018-09-21T11:55:23.970Z,974.06
2018-09-21T11:56:23.911Z,974.03
2018-09-21T11:57:23.851Z,974.01
2018-09-21T11:58:23.794Z,973.96
2018-09-21T11:59:23.747Z,973.93
2018-09-21T12:00:23.682Z,973.91
2018-09-21T12:01:23.625Z,973.96
2018-09-21T12:02:23.572Z,973.91
2018-09-21T12:03:23.521Z,973.87
2018-09-21T12:04:23.468Z,973.86
2018-09-21T12:05:23.403Z,973.82
2018-09-21T12:06:23.346Z,973.70
2018-09-21T12:07:23.296Z,973.63
2018-09-21T12:08:23.240Z,973.75
2018-09-21T12:09:23.179Z,973.66
2018-09-21T12:10:23.138Z,973.71
2018-09-21T12:11:23.072Z,973.77
2018-09-21T12:12:23.019Z,973.78
2018-09-21T12:13:22.955Z,973.76
2018-09-21T12:14:22.897Z,973.72
2018-09-21T12:15:22.857Z,973.68
2018-09-21T12:16:22.782Z,973.72
2018-09-21T12:17:22.738Z,973.87
2018-09-21T12:18:22.670Z,973.83
2018-09-21T12:19:22.610Z,973.80
2018-09-21T12:20:22.563Z,973.78
2018-09-21T12:21:22.502Z,973.72
2018-09-21T12:22:22.440Z,973.72
2018-09-21T12:23:22.385Z,973.69
2018-09-21T12:24:22.326Z,973.55
2018-09-21T12:25:22.274Z,973.57
2018-09-21T12:26:22.216Z,973.71
2018-09-21T12:27:22.161Z,973.65
2018-09-21T12:28:22.111Z,973.62
2018-09-21T12:29:22.044Z,973.61
2018-09-21T12:30:22.030Z,973.57
2018-09-21T12:31:21.936Z,973.66
2018-09-21T12:32:21.871Z,973.60
2018-09-21T12:33:21.820Z,973.56
2018-09-21T12:34:21.758Z,973.54
2018-09-21T12:35:21.713Z,973.58
2018-09-21T12:36:21.691Z,973.56
2018-09-21T12:37:21.588Z,973.49
2018-09-21T12:38:21.533Z,973.47
2018-09-21T12:39:21.474Z,973.40
2018-09-21T12:40:21.420Z,973.46
2018-09-21T12:41:21.362Z,973.39
2018-09-21T12:42:21.331Z,973.39
2018-09-21T12:43:21.252Z,973.52
2018-09-21T12:44:21.199Z,973.48
2018-09-21T12:45:21.137Z,973.53
2018-09-21T12:46:21.089Z,973.41
2018-09-21T12:47:21.028Z,973.40
2018-09-21T12:48:20.967Z,973.40
2018-09-21T12:49:20.910Z,973.35
2018-09-21T12:50:20.925Z,973.33
2018-09-21T12:51:20.803Z,973.27